AirNav   Air Wisconsin pilot careers
 
 898 users online  

WS89 Appleton Medical Center Heliport
Appleton, Wisconsin, USA

GOING TO APPLETON?


FAA INFORMATION EFFECTIVE 08 NOVEMBER 2018

Location

FAA Identifier: WS89
Lat/Long: 44-16-44.4000N / 088-23-35.1276W
44-16.740000N / 088-23.585460W
44.2790000 / -88.3930910
(estimated)
Elevation: 769 ft. / 234 m (estimated)
Variation: 03W (2010)
From city: 1 mile NE of APPLETON, WI
Time zone: UTC -6 (UTC -5 during Daylight Saving Time)
Zip code: 54911

Heliport Operations

Heliport use: Private use. Permission required prior to landing
Activation date: 04/2011
Control tower: no
ARTCC: MINNEAPOLIS CENTER
FSS: GREEN BAY FLIGHT SERVICE STATION
NOTAMs facility: FDC (NOTAM-D service not available)
Attendance: UNATNDD
Wind indicator: yes
Segmented circle: no
Lights: SS-SR
Beacon: white-green-yellow (heliport)

Heliport Communications

WX AWOS-3 at ATW (6 nm W): PHONE 920-832-2597
WX ASOS at GRB (17 nm NE): PHONE 920-494-7140
WX ASOS at OSH (19 nm S): PHONE 920-426-1644

Nearby radio navigation aids

VOR radial/distance  VOR name  Freq  Var
GRBr206/18.6GREEN BAY VORTAC115.5001E
OSHr020/18.7OSHKOSH VORTAC111.8002E
MTWr288/32.0MANITOWOC VOR/DME111.0002W
FAHr325/38.6FALLS VOR/DME110.0002W

 
NDB name  Hdg/Dist  Freq  Var  ID
KOOKY006/3.840702WAQ .- --.-
FAMIS216/11.735602WGR --. .-.
DEPRE239/13.333202WSG ... --.
WAUPACA098/27.138201WPCZ .--. -.-. --..

Heliport Services

Runway Information

Helipad H1

Dimensions: 40 x 40 ft. / 12 x 12 m
Surface: concrete
Runway edge lights: PERI
Latitude: 44-16.740000N
Longitude: 088-23.585460W
Elevation: 769.0 ft.
Traffic pattern: leftleft
Obstructions: bldg
50 FT BLDG 182 FT FM PAD.

Heliport Ownership and Management from official FAA records

Ownership: Privately-owned
Owner: APPLETON MEDICAL CENTER
1818 N. MEADE ST
APPLETON, WI 54911
Phone 920-729-4101
Manager: KIRK VANDENBERG
130 SECOND STREET
NEENAH, WI 54956
Phone (920) 729-2423

Instrument Procedures

There are no published instrument procedures at WS89.

Some nearby airports with instrument procedures:

KATW - Appleton International Airport (6 nm W)
KGRB - Green Bay-Austin Straubel International Airport (17 nm NE)
KOSH - Wittman Regional Airport (19 nm S)
8D1 - New Holstein Municipal Airport (23 nm SE)
KCLI - Clintonville Municipal Airport (25 nm NW)
 
Loc | Ops | Rwys | IFR | FBO | Links
Com | Nav | Svcs | Stats | Notes


 
Aerial photo
No photo
 
Sectional chart

 
Airport distance calculator
Flying to Appleton Medical Center Heliport? Find the distance to fly.

From to WS89

Sunrise and sunset
Times for 18-Nov-2018
 Local
(UTC-6)
 Zulu
(UTC)
Morning civil twilight06:2312:23
Sunrise06:5412:54
Sunset16:2322:23
Evening civil twilight16:5522:55

Current date and time
Zulu (UTC)  18-Nov-2018 19:02:58
Local (UTC-6)  18-Nov-2018 13:02:58
 
METAR
KATW 
6nm W 
181845Z 24010KT 10SM SKC M02/M14 A3015
KGRB 
17nm NE 
181853Z 24013G20KT 10SM CLR M01/M12 A3015 RMK AO2 SLP222 T10111122
KOSH 
20nm S 
181853Z 26008KT 10SM CLR M01/M12 A3017 RMK AO2 SLP234 T10111117
TAF
KATW 
6nm W 
181734Z 1818/1918 25010G15KT P6SM SKC FM182200 24006KT P6SM SCT150 FM190400 22005KT P6SM BKN120 FM191300 23005KT P6SM -SN SCT040 OVC060 FM191400 26005KT P6SM -SN OVC040 TEMPO 1915/1917 3SM -SN OVC025 FM191700 30006KT P6SM -SN OVC025
KGRB 
17nm NE 
181734Z 1818/1918 25011G16KT P6SM SKC FM182200 23004KT P6SM BKN120 FM191200 24004KT P6SM -SN SCT040 OVC060 TEMPO 1914/1917 3SM -SN OVC025 FM191700 29004KT P6SM -SN OVC024
NOTAMs
Click for the latest NOTAMs
NOTAMs are issued by the DoD/FAA and will open in a separate window not controlled by AirNav.

 

 
 

Would you like to see your business listed on this page?

 If your business provides an interesting product or service to pilots, flight crews, aircraft, or users of the Appleton Medical Center Heliport, you should consider listing it here.  To start the listing process, click on the button below
 
Add a business
 

Other Pages about Appleton Medical Center Heliport

Update a link
 
Copyright © AirNav, LLC. All rights reserved. Privacy Policy  Contact